createdAt,value
2018-01-30T00:02:05.405Z,4.97
2018-01-30T00:04:33.669Z,2.33
2018-01-30T00:07:01.172Z,11.93
2018-01-30T00:09:28.680Z,6.13
2018-01-30T00:11:56.165Z,6.60
2018-01-30T00:14:24.410Z,9.73
2018-01-30T00:16:51.901Z,7.07
2018-01-30T00:19:20.169Z,9.47
2018-01-30T00:21:48.449Z,7.77
2018-01-30T00:24:16.697Z,9.50
2018-01-30T00:26:44.188Z,7.60
2018-01-30T00:29:12.437Z,7.97
2018-01-30T00:31:39.946Z,7.77
2018-01-30T00:34:07.445Z,5.97
2018-01-30T00:36:34.926Z,7.40
2018-01-30T00:39:03.206Z,9.40
2018-01-30T00:41:31.480Z,20.40
2018-01-30T00:43:59.750Z,6.50
2018-01-30T00:46:28.042Z,13.70
2018-01-30T00:48:56.394Z,11.03
2018-01-30T00:51:23.880Z,9.00
2018-01-30T00:53:52.157Z,9.70
2018-01-30T00:56:20.405Z,11.70
2018-01-30T00:58:47.908Z,7.80
2018-01-30T01:01:15.426Z,13.80
2018-01-30T01:03:42.913Z,10.80
2018-01-30T01:06:11.177Z,10.03
2018-01-30T01:08:39.430Z,8.80
2018-01-30T01:11:06.940Z,20.40
2018-01-30T01:13:34.449Z,13.03
2018-01-30T01:16:01.966Z,13.30
2018-01-30T01:18:29.461Z,9.17
2018-01-30T01:20:56.945Z,14.70
2018-01-30T01:23:24.447Z,12.93
2018-01-30T01:25:51.937Z,13.50
2018-01-30T01:28:19.442Z,13.50
2018-01-30T01:30:47.013Z,14.17
2018-01-30T01:33:14.526Z,13.50
2018-01-30T01:35:42.009Z,20.90
2018-01-30T01:38:10.276Z,9.00
2018-01-30T01:40:38.562Z,14.93
2018-01-30T01:43:06.049Z,13.13
2018-01-30T01:45:33.557Z,18.13
2018-01-30T01:48:01.056Z,17.63
2018-01-30T01:50:28.577Z,11.23
2018-01-30T01:52:56.069Z,19.17
2018-01-30T01:55:24.336Z,12.03
2018-01-30T01:57:52.598Z,15.90
2018-01-30T02:00:20.882Z,15.10
2018-01-30T02:02:49.142Z,16.23
2018-01-30T02:05:16.632Z,20.17
2018-01-30T02:07:44.903Z,16.80
2018-01-30T02:10:13.162Z,21.17
2018-01-30T02:12:42.461Z,23.27
2018-01-30T02:15:09.945Z,17.23
2018-01-30T02:17:38.216Z,26.73
2018-01-30T02:20:06.481Z,17.70
2018-01-30T02:22:34.753Z,27.97
2018-01-30T02:25:03.026Z,20.20
2018-01-30T02:27:30.544Z,17.10
2018-01-30T02:29:58.033Z,24.07
2018-01-30T02:32:25.525Z,21.87
2018-01-30T02:34:53.037Z,22.23
2018-01-30T02:37:20.535Z,14.47
2018-01-30T02:39:48.810Z,19.17
2018-01-30T02:42:17.065Z,19.07
2018-01-30T02:44:44.572Z,21.00
2018-01-30T02:47:12.074Z,20.70
2018-01-30T02:49:39.578Z,19.37
2018-01-30T02:52:07.086Z,29.53
2018-01-30T02:54:34.597Z,20.20
2018-01-30T02:57:02.133Z,28.27
2018-01-30T02:59:30.402Z,21.70
2018-01-30T03:01:58.690Z,26.97
2018-01-30T03:04:26.965Z,25.73
2018-01-30T03:06:55.233Z,26.63
2018-01-30T03:09:22.718Z,31.60
2018-01-30T03:11:50.730Z,27.33
2018-01-30T03:14:18.221Z,27.00
2018-01-30T03:16:45.729Z,33.63
2018-01-30T03:19:13.229Z,24.47
2018-01-30T03:21:40.725Z,36.93
2018-01-30T03:24:08.241Z,24.43
2018-01-30T03:26:35.734Z,35.30
2018-01-30T03:29:03.997Z,30.50
2018-01-30T03:31:32.253Z,23.33
2018-01-30T03:33:59.757Z,25.97
2018-01-30T03:36:27.265Z,28.10
2018-01-30T03:38:54.773Z,34.07
2018-01-30T03:41:22.276Z,32.50
2018-01-30T03:43:49.765Z,22.40
2018-01-30T03:46:18.041Z,34.43
2018-01-30T03:48:46.301Z,32.57
2018-01-30T03:51:13.849Z,26.27
2018-01-30T03:53:41.338Z,34.97
2018-01-30T03:56:09.617Z,29.13
2018-01-30T03:58:37.902Z,34.20
2018-01-30T04:01:05.427Z,37.87
2018-01-30T04:03:32.934Z,29.30
2018-01-30T04:06:00.437Z,32.37
2018-01-30T04:08:27.940Z,28.20
2018-01-30T04:10:56.198Z,24.10
2018-01-30T04:13:23.717Z,27.23
2018-01-30T04:15:51.213Z,32.47
2018-01-30T04:18:20.522Z,31.27
2018-01-30T04:20:49.689Z,30.03
2018-01-30T04:23:17.181Z,42.93
2018-01-30T04:25:45.454Z,29.07
2018-01-30T04:28:13.713Z,29.43
2018-01-30T04:30:41.225Z,30.07
2018-01-30T04:33:08.721Z,32.30
2018-01-30T04:35:36.227Z,24.23
2018-01-30T04:38:03.738Z,24.53
2018-01-30T04:40:31.245Z,33.20
2018-01-30T04:42:58.754Z,24.97
2018-01-30T04:45:26.253Z,24.60
2018-01-30T04:47:54.529Z,31.10
2018-01-30T04:50:22.797Z,29.50
2018-01-30T04:52:51.069Z,20.00
2018-01-30T04:55:19.330Z,30.23
2018-01-30T04:57:46.839Z,31.20
2018-01-30T05:00:14.341Z,25.70
2018-01-30T05:02:41.863Z,30.33
2018-01-30T05:05:09.354Z,27.63
2018-01-30T05:07:36.841Z,20.30
2018-01-30T05:10:05.114Z,22.87
2018-01-30T05:12:34.389Z,19.63
2018-01-30T05:15:01.897Z,25.47
2018-01-30T05:17:29.431Z,30.63
2018-01-30T05:19:57.712Z,26.93
2018-01-30T05:22:25.969Z,24.13
2018-01-30T05:24:53.493Z,22.23
2018-01-30T05:27:20.981Z,36.90
2018-01-30T05:29:48.471Z,42.33
2018-01-30T05:32:16.742Z,26.97
2018-01-30T05:34:45.038Z,29.43
2018-01-30T05:37:13.305Z,33.53
2018-01-30T05:39:41.569Z,29.90
2018-01-30T05:42:09.082Z,33.50
2018-01-30T05:44:37.583Z,30.93
2018-01-30T05:47:05.089Z,26.90
2018-01-30T05:49:33.346Z,28.27
2018-01-30T05:52:01.604Z,29.50
2018-01-30T05:54:29.105Z,30.27
2018-01-30T05:56:56.609Z,23.90
2018-01-30T05:59:24.114Z,24.20
2018-01-30T06:01:52.377Z,30.00
2018-01-30T06:04:20.649Z,22.80
2018-01-30T06:06:48.152Z,27.37
2018-01-30T06:09:15.666Z,30.47
2018-01-30T06:11:43.165Z,24.57
2018-01-30T06:14:10.657Z,22.03
2018-01-30T06:16:38.165Z,30.23
2018-01-30T06:19:06.420Z,41.10
2018-01-30T06:21:35.468Z,23.53
2018-01-30T06:24:02.953Z,30.17
2018-01-30T06:26:30.470Z,24.30
2018-01-30T06:28:57.961Z,33.83
2018-01-30T06:31:25.449Z,28.97
2018-01-30T06:33:52.950Z,23.80
2018-01-30T06:36:20.490Z,32.20
2018-01-30T06:38:48.013Z,29.90
2018-01-30T06:41:15.524Z,31.53
2018-01-30T06:43:43.069Z,30.27
2018-01-30T06:46:10.625Z,29.47
2018-01-30T06:48:38.146Z,24.40
2018-01-30T06:51:05.651Z,24.30
2018-01-30T06:53:33.181Z,27.80
2018-01-30T06:56:00.782Z,32.37
2018-01-30T06:58:28.321Z,31.23
2018-01-30T07:00:56.589Z,30.90
2018-01-30T07:03:24.841Z,34.27
2018-01-30T07:05:52.357Z,21.73
2018-01-30T07:08:19.849Z,35.57
2018-01-30T07:10:47.350Z,35.87
2018-01-30T07:13:14.874Z,40.00
2018-01-30T07:15:42.369Z,33.30
2018-01-30T07:18:10.638Z,48.17
2018-01-30T07:20:38.901Z,32.90
2018-01-30T07:23:07.178Z,38.63
2018-01-30T07:25:34.665Z,31.93
2018-01-30T07:28:02.222Z,36.90
2018-01-30T07:30:29.724Z,30.90
2018-01-30T07:32:57.217Z,36.00
2018-01-30T07:35:25.490Z,33.13
2018-01-30T07:37:52.988Z,32.20
2018-01-30T07:40:20.495Z,30.70
2018-01-30T07:42:47.993Z,35.03
2018-01-30T07:45:15.514Z,32.90
2018-01-30T07:47:43.006Z,34.60
2018-01-30T07:50:11.302Z,40.47
2018-01-30T07:52:38.797Z,30.70
2018-01-30T07:55:06.285Z,33.03
2018-01-30T07:57:34.557Z,37.80
2018-01-30T08:00:02.816Z,41.20
2018-01-30T08:02:30.317Z,34.27
2018-01-30T08:04:57.834Z,39.63
2018-01-30T08:07:25.354Z,38.73
2018-01-30T08:09:52.845Z,30.90
2018-01-30T08:12:20.359Z,33.13
2018-01-30T08:14:47.889Z,32.13
2018-01-30T08:17:16.141Z,33.90
2018-01-30T08:19:43.636Z,33.97
2018-01-30T08:22:11.896Z,35.23
2018-01-30T08:24:40.169Z,43.50
2018-01-30T08:27:09.443Z,37.97
2018-01-30T08:29:37.025Z,32.50
2018-01-30T08:32:04.519Z,32.93
2018-01-30T08:34:32.046Z,27.80
2018-01-30T08:36:59.536Z,34.27
2018-01-30T08:39:27.045Z,30.50
2018-01-30T08:41:54.548Z,36.63
2018-01-30T08:44:22.805Z,35.50
2018-01-30T08:46:51.076Z,32.20
2018-01-30T08:49:18.565Z,34.13
2018-01-30T08:51:46.101Z,26.40
2018-01-30T08:54:13.612Z,22.80
2018-01-30T08:56:41.134Z,25.73
2018-01-30T08:59:09.401Z,26.53
2018-01-30T09:01:37.652Z,35.83
2018-01-30T09:04:05.157Z,29.50
2018-01-30T09:06:32.665Z,27.97
2018-01-30T09:09:00.266Z,24.53
2018-01-30T09:11:27.848Z,25.57
2018-01-30T09:13:55.353Z,24.67
2018-01-30T09:16:22.849Z,24.57
2018-01-30T09:18:50.385Z,37.50
2018-01-30T09:21:18.642Z,32.13
2018-01-30T09:23:47.641Z,29.80
2018-01-30T09:26:15.164Z,31.33
2018-01-30T09:28:42.658Z,32.63
2018-01-30T09:31:10.201Z,28.37
2018-01-30T09:33:37.696Z,44.53
2018-01-30T09:36:05.987Z,28.27
2018-01-30T09:38:33.512Z,20.67
2018-01-30T09:41:02.545Z,26.77
2018-01-30T09:43:30.049Z,20.87
2018-01-30T09:45:57.543Z,32.97
2018-01-30T09:48:25.812Z,28.37
2018-01-30T09:50:53.307Z,30.37
2018-01-30T09:53:20.872Z,41.63
2018-01-30T09:55:48.393Z,23.40
2018-01-30T09:58:16.682Z,14.70
2018-01-30T10:00:44.992Z,22.07
2018-01-30T10:03:12.509Z,18.50
2018-01-30T10:05:40.774Z,17.37
2018-01-30T10:08:08.265Z,21.70
2018-01-30T10:10:35.841Z,19.47
2018-01-30T10:13:04.361Z,18.60
2018-01-30T10:15:31.861Z,20.93
2018-01-30T10:18:00.113Z,20.57
2018-01-30T10:20:27.743Z,26.50
2018-01-30T10:22:55.241Z,16.87
2018-01-30T10:25:22.761Z,25.73
2018-01-30T10:27:50.349Z,28.13
2018-01-30T10:30:18.145Z,18.53
2018-01-30T10:32:46.416Z,16.90
2018-01-30T10:35:14.673Z,18.50
2018-01-30T10:37:42.197Z,16.30
2018-01-30T10:40:09.712Z,15.53
2018-01-30T10:42:37.981Z,28.73
2018-01-30T10:45:06.237Z,15.03
2018-01-30T10:47:33.829Z,20.43
2018-01-30T10:50:02.112Z,22.90
2018-01-30T10:52:29.674Z,15.77
2018-01-30T10:54:57.247Z,18.70
2018-01-30T10:57:24.753Z,21.63
2018-01-30T10:59:52.265Z,19.80
2018-01-30T11:02:19.761Z,32.63
2018-01-30T11:04:47.269Z,24.60
2018-01-30T11:07:14.777Z,19.70
2018-01-30T11:11:44.405Z,28.23
2018-01-30T11:14:11.902Z,16.27
2018-01-30T11:16:39.445Z,15.43
2018-01-30T11:19:07.751Z,18.27
2018-01-30T11:21:35.291Z,16.27
2018-01-30T11:24:03.552Z,21.00
2018-01-30T11:26:31.041Z,14.93
2018-01-30T11:28:58.588Z,28.17
2018-01-30T11:31:26.102Z,28.40
2018-01-30T11:33:53.705Z,17.30
2018-01-30T11:36:21.974Z,15.83
2018-01-30T11:38:50.253Z,15.77
2018-01-30T11:41:18.536Z,16.43
2018-01-30T11:43:46.818Z,17.93
2018-01-30T11:46:15.089Z,15.97
2018-01-30T11:48:43.393Z,18.67
2018-01-30T11:51:10.897Z,17.63
2018-01-30T11:53:38.392Z,24.07
2018-01-30T11:56:06.676Z,21.20
2018-01-30T11:58:34.182Z,14.73
2018-01-30T12:01:01.691Z,13.57
2018-01-30T12:03:29.210Z,14.93
2018-01-30T12:05:56.745Z,34.63
2018-01-30T12:08:24.233Z,16.30
2018-01-30T12:10:51.721Z,18.17
2018-01-30T12:13:19.981Z,18.90
2018-01-30T12:15:48.245Z,12.60
2018-01-30T12:18:15.745Z,12.67
2018-01-30T12:20:43.241Z,10.17
2018-01-30T12:23:10.750Z,18.60
2018-01-30T12:25:38.261Z,23.07
2018-01-30T12:28:05.754Z,12.67
2018-01-30T12:30:34.022Z,9.07
2018-01-30T12:33:02.292Z,27.80
2018-01-30T12:35:29.898Z,36.33
2018-01-30T12:37:57.393Z,10.40
2018-01-30T12:40:24.894Z,38.80
2018-01-30T12:42:52.410Z,11.90
2018-01-30T12:45:19.933Z,28.33
2018-01-30T12:47:47.437Z,14.23
2018-01-30T12:50:14.935Z,10.60
2018-01-30T12:52:42.457Z,12.33
2018-01-30T12:55:09.945Z,9.37
2018-01-30T12:57:38.213Z,11.83
2018-01-30T13:00:06.469Z,12.70
2018-01-30T13:02:34.016Z,12.20
2018-01-30T13:05:01.493Z,9.90
2018-01-30T13:07:28.997Z,12.23
2018-01-30T13:09:56.552Z,11.83
2018-01-30T13:12:24.050Z,13.17
2018-01-30T13:14:51.575Z,28.33
2018-01-30T13:17:19.070Z,11.43
2018-01-30T13:19:46.609Z,13.90
2018-01-30T13:22:14.110Z,9.53
2018-01-30T13:24:41.601Z,12.43
2018-01-30T13:27:09.123Z,10.20
2018-01-30T13:29:36.618Z,10.60
2018-01-30T13:32:04.129Z,11.47
2018-01-30T13:34:31.677Z,13.13
2018-01-30T13:36:59.206Z,9.60
2018-01-30T13:39:26.713Z,15.23
2018-01-30T13:41:54.234Z,16.00
2018-01-30T13:44:21.746Z,13.30
2018-01-30T13:46:50.017Z,12.53
2018-01-30T13:49:17.525Z,13.10
2018-01-30T13:51:45.078Z,12.13
2018-01-30T13:54:12.611Z,10.53
2018-01-30T13:56:40.878Z,11.87
2018-01-30T13:59:09.163Z,16.07
2018-01-30T14:01:37.443Z,14.73
2018-01-30T14:04:05.702Z,17.50
2018-01-30T14:06:35.030Z,12.63
2018-01-30T14:09:03.277Z,11.77
2018-01-30T14:11:31.586Z,11.10
2018-01-30T14:13:59.086Z,11.83
2018-01-30T14:16:26.574Z,11.40
2018-01-30T14:18:54.080Z,40.57
2018-01-30T14:21:21.573Z,11.33
2018-01-30T14:23:49.108Z,16.33
2018-01-30T14:26:16.652Z,11.70
2018-01-30T14:28:44.172Z,18.03
2018-01-30T14:31:12.437Z,14.87
2018-01-30T14:33:39.928Z,16.17
2018-01-30T14:36:07.457Z,16.67
2018-01-30T14:38:34.946Z,11.70
2018-01-30T14:41:03.225Z,17.67
2018-01-30T14:43:30.740Z,10.83
2018-01-30T14:45:58.254Z,11.90
2018-01-30T14:48:25.757Z,9.73
2018-01-30T14:50:53.253Z,11.13
2018-01-30T14:53:21.527Z,10.23
2018-01-30T14:55:49.781Z,9.03
2018-01-30T14:58:17.281Z,9.43
2018-01-30T15:00:45.346Z,11.57
2018-01-30T15:03:12.885Z,11.50
2018-01-30T15:05:41.146Z,13.13
2018-01-30T15:08:08.702Z,15.53
2018-01-30T15:10:36.238Z,27.93
2018-01-30T15:13:04.205Z,39.93
2018-01-30T15:15:31.718Z,19.80
2018-01-30T15:18:00.008Z,16.40
2018-01-30T15:20:27.542Z,19.37
2018-01-30T15:22:57.319Z,11.93
2018-01-30T15:25:24.820Z,18.70
2018-01-30T15:27:53.097Z,30.77
2018-01-30T15:30:21.362Z,22.90
2018-01-30T15:32:48.945Z,14.23
2018-01-30T15:35:17.198Z,13.33
2018-01-30T15:37:44.757Z,16.80
2018-01-30T15:40:12.255Z,16.70
2018-01-30T15:42:39.752Z,16.40
2018-01-30T15:45:07.261Z,26.63
2018-01-30T15:47:35.517Z,15.60
2018-01-30T15:50:03.932Z,18.87
2018-01-30T15:52:31.425Z,45.13
2018-01-30T15:54:58.929Z,14.10
2018-01-30T15:57:27.185Z,14.20
2018-01-30T15:59:54.788Z,16.20
2018-01-30T16:02:22.281Z,16.33
2018-01-30T16:04:49.769Z,16.40
2018-01-30T16:07:18.045Z,17.23
2018-01-30T16:09:46.305Z,16.87
2018-01-30T16:12:13.843Z,13.10
2018-01-30T16:14:41.334Z,16.77
2018-01-30T16:17:08.845Z,21.10
2018-01-30T16:19:36.334Z,27.93
2018-01-30T16:22:03.837Z,15.87
2018-01-30T16:24:31.597Z,15.23
2018-01-30T16:26:59.153Z,15.23
2018-01-30T16:29:27.421Z,13.63
2018-01-30T16:31:55.822Z,18.53
2018-01-30T16:34:23.361Z,25.57
2018-01-30T16:36:51.676Z,17.23
2018-01-30T16:39:19.184Z,15.87
2018-01-30T16:42:18.447Z,15.80
2018-01-30T16:44:46.098Z,20.83
2018-01-30T16:47:13.781Z,14.30
2018-01-30T16:49:41.286Z,15.87
2018-01-30T16:52:09.653Z,11.83
2018-01-30T16:54:37.209Z,21.83
2018-01-30T16:57:04.698Z,17.67
2018-01-30T16:59:32.220Z,31.03
2018-01-30T17:02:00.232Z,17.03
2018-01-30T17:04:28.850Z,19.27
2018-01-30T17:06:56.446Z,14.50
